Columbus, NE

7:55 AM CDT on August 28, 2015 (GMT -0500)
Local Weather Plus | | Change Station
CLOSE
Current Station
Personal Weather Station
Location: Columbus, NE
Elevation: 1457 ft
Nearby Weather Stations

Elev 1457 ft 41.45 °N, 97.39 °W | Updated 30 seconds ago

Scattered Clouds
Scattered Clouds
69.7 °F
Feels Like 69.7 °F
N
5.0
Wind Variable Wind from WNW
Gusts 7.0 mph

Today
High -- | Low -- °F
--% Chance of Precip.
Yesterday
High -- | Low -- °F
Precip. -- in
6:51 AM 8:09 PM
Waxing Gibbous, 98% visible
Pressure 29.82 in
Visibility 7.0 miles
Clouds Few 1200 ft
Scattered Clouds 2700 ft
Dew Point 67 °F
Humidity 90%
Rainfall 0.33 in
Snow Depth Not available.
UV 0.0 out of 12
Pollen 7.40 out of 12
Air Quality Not available.
Flu Activity Not available.
METAR KOLU 281235Z AUTO 26006KT 7SM FEW012 SCT027 21/18 A2982 RMK AO1
Pressure 29.82 in
Visibility 7.0 miles
Clouds Few 1200 ft
Scattered Clouds 2700 ft
Dew Point 67 °F
Humidity 90%
Rainfall 0.33 in
Snow Depth Not available.
UV 0.0 out of 12
Pollen 7.40 out of 12
Air Quality Not available.
Flu Activity Not available.
METAR KOLU 281235Z AUTO 26006KT 7SM FEW012 SCT027 21/18 A2982 RMK AO1

10-Day Weather Forecast

×

Almanac

Astronomy

Aug. 28, 2015 Rise Set
Actual Time
Civil Twilight
Nautical Twilight
Astronomical Twilight
Moon
Length of Visible Light
Length of Day
Tomorrow will be .
, % of the Moon is Illuminated

Today's Extremes

State Highs State Lows

Community

WunderPhotos

Upload Photos

1,850,373 photos uploaded!

WunderBlogs® & News

Nearby

Air Quality

  Air Quality AQ Index Pollutant
Not available.

Snow Depth

Station Depth Elevation

Earthquake Activity

City Distance Mag. Time & Date
Minimum magnitude displayed is 2.5.

Coastal Water Temperatures

Place Temperature

Stations

Nearby Weather Stations

Station Location Temp. Windchill Dew Point Humidity Wind Precip. Elev Updated Type